Time;durP1;ratioP1;P1;durP2;ratioP2;P2;SDS_P1;SDS_P2;PMS_P1;PMS_P2;Temp;Humidity;BMP_temperature;BMP_pressure;BME280_temperature;BME280_humidity;BME280_pressure;Samples;Min_cycle;Max_cycle;Signal;HPM_P1;HPM_P2
2023/03/13 00:01:39;;;;;;;13.80;2.60;;;6.70;99.90;;;;;;5026171;28;20542;-68
2023/03/13 00:04:05;;;;;;;8.73;2.07;;;6.70;99.90;;;;;;5027581;28;20488;-68
2023/03/13 00:06:33;;;;;;;6.13;1.67;;;6.70;99.90;;;;;;5028408;28;20456;-67
2023/03/13 00:08:59;;;;;;;10.13;2.50;;;6.70;99.90;;;;;;5029697;28;20490;-68
2023/03/13 00:11:26;;;;;;;5.63;2.10;;;6.60;99.90;;;;;;5029800;28;20477;-68
2023/03/13 00:13:56;;;;;;;7.13;2.27;;;6.60;99.90;;;;;;5028608;28;20468;-68
2023/03/13 00:16:22;;;;;;;3.73;1.10;;;6.60;99.90;;;;;;5033004;28;20445;-68
2023/03/13 00:18:50;;;;;;;5.67;1.83;;;6.70;99.90;;;;;;5035405;28;20929;-67
2023/03/13 00:21:17;;;;;;;8.60;2.20;;;6.70;99.90;;;;;;5034118;28;20197;-67
2023/03/13 00:23:43;;;;;;;3.40;1.43;;;6.80;99.90;;;;;;5034578;28;20475;-68
2023/03/13 00:26:11;;;;;;;3.93;1.40;;;6.80;99.90;;;;;;5034309;28;20460;-67
2023/03/13 00:28:38;;;;;;;3.60;1.30;;;6.90;99.90;;;;;;5034086;28;20535;-68
2023/03/13 00:31:10;;;;;;;5.30;1.77;;;7.00;99.90;;;;;;5034119;28;20441;-66
2023/03/13 00:33:40;;;;;;;3.57;1.73;;;7.00;99.90;;;;;;5031882;28;20500;-66
2023/03/13 00:36:15;;;;;;;7.73;3.00;;;7.00;99.90;;;;;;5033015;28;20475;-67
2023/03/13 00:38:41;;;;;;;3.77;1.50;;;7.10;99.90;;;;;;5031606;28;20428;-67
2023/03/13 00:41:11;;;;;;;17.90;2.00;;;7.10;99.90;;;;;;5027438;28;20452;-67
2023/03/13 00:43:38;;;;;;;6.27;2.10;;;7.10;99.90;;;;;;5031868;28;20421;-67
2023/03/13 00:46:04;;;;;;;14.60;2.20;;;7.10;99.90;;;;;;5032653;28;20420;-67
2023/03/13 00:48:30;;;;;;;7.57;2.70;;;7.10;99.90;;;;;;5031854;28;20623;-67
2023/03/13 00:50:56;;;;;;;4.77;1.83;;;7.00;99.90;;;;;;5030429;28;20486;-67
2023/03/13 00:53:22;;;;;;;7.30;1.30;;;7.10;99.90;;;;;;5030837;28;20222;-67
2023/03/13 00:55:58;;;;;;;4.50;1.43;;;7.20;99.90;;;;;;5029248;28;20610;-67
2023/03/13 00:58:25;;;;;;;6.10;1.63;;;7.30;99.90;;;;;;5031807;28;20186;-67
2023/03/13 01:00:51;;;;;;;3.00;1.37;;;7.40;99.90;;;;;;5031338;28;20591;-67
2023/03/13 01:03:17;;;;;;;4.37;1.57;;;7.50;99.90;;;;;;5031435;28;20530;-67
2023/03/13 01:05:43;;;;;;;3.30;0.93;;;7.50;99.90;;;;;;5030929;28;20947;-67
2023/03/13 01:08:09;;;;;;;6.40;1.43;;;7.60;99.90;;;;;;5032085;28;20490;-67
2023/03/13 01:10:34;;;;;;;2.63;1.03;;;7.60;99.90;;;;;;5032524;28;20281;-67
2023/03/13 01:13:00;;;;;;;4.87;1.60;;;7.70;99.90;;;;;;5029857;28;20309;-67
2023/03/13 01:15:26;;;;;;;7.80;0.97;;;7.80;99.90;;;;;;5031705;28;20724;-67
2023/03/13 01:17:51;;;;;;;6.77;1.53;;;7.80;99.90;;;;;;5032848;28;20660;-67
2023/03/13 01:20:17;;;;;;;2.00;0.97;;;7.80;99.90;;;;;;5031368;28;20533;-67
2023/03/13 01:22:43;;;;;;;10.13;2.00;;;7.80;99.90;;;;;;5030532;28;20558;-67
2023/03/13 01:25:08;;;;;;;8.67;1.17;;;7.90;99.90;;;;;;5032740;28;20186;-67
2023/03/13 01:27:34;;;;;;;2.10;0.90;;;7.90;99.90;;;;;;5026408;28;20262;-67
2023/03/13 01:30:00;;;;;;;8.03;1.37;;;7.90;99.90;;;;;;5029835;28;20541;-67
2023/03/13 01:32:25;;;;;;;4.93;1.20;;;7.90;99.90;;;;;;5029945;28;20198;-67
2023/03/13 01:34:51;;;;;;;3.77;1.00;;;8.00;99.90;;;;;;5030586;28;20623;-67
2023/03/13 01:37:16;;;;;;;6.60;1.50;;;8.00;99.90;;;;;;5030364;28;20209;-67
2023/03/13 01:39:42;;;;;;;4.60;0.70;;;8.00;99.90;;;;;;5023289;28;20290;-67
2023/03/13 01:42:08;;;;;;;2.60;1.20;;;8.00;99.90;;;;;;5027935;28;20193;-67
2023/03/13 01:44:51;;;;;;;11.77;1.67;;;8.00;99.90;;;;;;5030156;28;20222;-67
2023/03/13 01:47:16;;;;;;;3.10;1.03;;;8.00;99.90;;;;;;5029922;28;20213;-67
2023/03/13 01:49:43;;;;;;;3.20;1.07;;;8.00;99.90;;;;;;5031959;28;22055;-67
2023/03/13 01:52:38;;;;;;;8.33;1.17;;;8.00;99.90;;;;;;5030418;28;20194;-67
2023/03/13 01:55:10;;;;;;;2.80;1.33;;;8.10;99.90;;;;;;5018460;28;20485;-67
2023/03/13 01:57:41;;;;;;;2.00;1.00;;;8.00;99.90;;;;;;5023622;28;20451;-67
2023/03/13 02:00:12;;;;;;;5.80;1.43;;;8.00;99.90;;;;;;5029851;28;20460;-67
2023/03/13 02:02:42;;;;;;;1.97;0.60;;;8.10;99.90;;;;;;5030763;28;20441;-67
2023/03/13 02:05:08;;;;;;;2.03;0.77;;;8.10;99.90;;;;;;5030913;28;20441;-67
2023/03/13 02:07:44;;;;;;;2.90;1.20;;;8.10;99.90;;;;;;5030877;28;20452;-67
2023/03/13 02:10:12;;;;;;;5.60;1.60;;;8.10;99.90;;;;;;5026361;28;20378;-67
2023/03/13 02:12:39;;;;;;;8.13;1.50;;;8.10;99.90;;;;;;5028947;28;20456;-67
2023/03/13 02:15:13;;;;;;;7.67;1.53;;;8.10;99.90;;;;;;5021495;28;20473;-66
2023/03/13 02:17:40;;;;;;;2.23;1.00;;;8.10;99.90;;;;;;5030249;28;20519;-67
2023/03/13 02:20:07;;;;;;;5.80;0.73;;;8.20;99.90;;;;;;5030740;28;20448;-67
2023/03/13 02:22:59;;;;;;;3.93;1.13;;;8.20;99.90;;;;;;5022926;28;20472;-67
2023/03/13 02:25:45;;;;;;;8.83;1.57;;;8.30;99.90;;;;;;5028893;28;21164;-67
2023/03/13 02:28:18;;;;;;;7.57;1.50;;;8.30;99.90;;;;;;5023322;28;20437;-67
2023/03/13 02:30:46;;;;;;;4.27;0.87;;;8.30;99.90;;;;;;5025732;28;20487;-67
2023/03/13 02:33:13;;;;;;;2.60;1.10;;;8.30;99.90;;;;;;5025376;28;20469;-67
2023/03/13 02:35:39;;;;;;;2.10;0.87;;;8.40;99.90;;;;;;5029208;28;20437;-67
2023/03/13 02:38:08;;;;;;;3.77;1.40;;;8.40;99.90;;;;;;5030235;28;20934;-67
2023/03/13 02:40:37;;;;;;;1.90;0.73;;;8.40;99.90;;;;;;5024826;28;20900;-67
2023/03/13 02:43:08;;;;;;;1.60;0.90;;;8.40;99.90;;;;;;5025466;28;20447;-67
2023/03/13 02:45:33;;;;;;;2.07;1.13;;;8.40;99.90;;;;;;5030049;28;20421;-67
2023/03/13 02:47:59;;;;;;;4.50;1.13;;;8.40;99.90;;;;;;5030844;28;20440;-67
2023/03/13 02:50:25;;;;;;;1.83;0.70;;;8.30;99.90;;;;;;5021685;28;20696;-67
2023/03/13 02:52:56;;;;;;;1.53;1.00;;;8.40;99.90;;;;;;5029156;28;20186;-67
2023/03/13 02:55:33;;;;;;;2.20;0.80;;;8.40;99.90;;;;;;5030803;28;20635;-66
2023/03/13 02:57:58;;;;;;;1.70;1.27;;;8.30;99.90;;;;;;5028575;28;20440;-67
2023/03/13 03:00:25;;;;;;;3.47;1.20;;;8.40;99.90;;;;;;5028102;28;20790;-67
2023/03/13 03:02:53;;;;;;;15.03;1.40;;;8.40;99.90;;;;;;5029054;28;20186;-67
2023/03/13 03:05:19;;;;;;;6.50;0.63;;;8.40;99.90;;;;;;5029381;28;20433;-67
2023/03/13 03:07:44;;;;;;;2.23;0.80;;;8.40;99.90;;;;;;5030903;28;20559;-67
2023/03/13 03:10:10;;;;;;;3.87;1.17;;;8.40;99.90;;;;;;5029311;28;20429;-67
2023/03/13 03:12:36;;;;;;;1.20;0.60;;;8.40;99.90;;;;;;5029602;28;20191;-67
2023/03/13 03:15:03;;;;;;;3.77;0.83;;;8.50;99.90;;;;;;5029314;28;20491;-67
2023/03/13 03:17:29;;;;;;;1.63;0.80;;;8.50;99.90;;;;;;5011301;28;20187;-67
2023/03/13 03:19:55;;;;;;;2.60;1.03;;;8.50;99.90;;;;;;5028031;28;20441;-67
2023/03/13 03:22:21;;;;;;;1.70;0.70;;;8.50;99.90;;;;;;5029362;28;20992;-67
2023/03/13 03:24:46;;;;;;;3.50;1.30;;;8.60;99.90;;;;;;5029897;28;20190;-67
2023/03/13 03:27:12;;;;;;;3.23;0.90;;;8.60;99.90;;;;;;5026818;28;20193;-67
2023/03/13 03:29:38;;;;;;;1.50;0.83;;;8.60;99.90;;;;;;5030787;28;20198;-67
2023/03/13 03:32:04;;;;;;;1.70;0.80;;;8.60;99.90;;;;;;5029204;28;20233;-67
2023/03/13 03:34:29;;;;;;;3.03;0.90;;;8.70;99.90;;;;;;5028392;28;20217;-67
2023/03/13 03:36:55;;;;;;;2.93;0.70;;;8.80;99.90;;;;;;5029874;28;20189;-68
2023/03/13 03:39:21;;;;;;;2.30;1.20;;;8.90;99.90;;;;;;5029315;28;20186;-67
2023/03/13 03:41:46;;;;;;;4.00;0.70;;;8.90;99.90;;;;;;5029378;28;20222;-66
2023/03/13 03:44:12;;;;;;;2.30;0.90;;;9.00;99.90;;;;;;5028580;28;20190;-65
2023/03/13 03:46:38;;;;;;;1.20;0.53;;;9.00;99.90;;;;;;5029286;28;20191;-66
2023/03/13 03:49:03;;;;;;;2.20;0.83;;;9.10;99.90;;;;;;5029172;28;20611;-66
2023/03/13 03:51:29;;;;;;;2.40;0.67;;;9.20;99.90;;;;;;5028553;28;20197;-67
2023/03/13 03:53:54;;;;;;;3.70;1.10;;;9.20;99.90;;;;;;5017986;28;20232;-66
2023/03/13 03:56:20;;;;;;;1.10;0.50;;;9.30;99.90;;;;;;5029747;28;20190;-66
2023/03/13 03:58:46;;;;;;;6.73;1.00;;;9.30;99.90;;;;;;5028039;28;20194;-67
2023/03/13 04:01:11;;;;;;;1.67;0.80;;;9.40;99.90;;;;;;5029049;28;20206;-67
2023/03/13 04:03:37;;;;;;;8.90;1.00;;;9.50;99.90;;;;;;5027374;28;20224;-65
2023/03/13 04:06:02;;;;;;;1.77;0.50;;;9.60;99.90;;;;;;5029176;28;20187;-66
2023/03/13 04:08:28;;;;;;;1.77;0.77;;;9.60;99.90;;;;;;5029108;28;20677;-65
2023/03/13 04:10:54;;;;;;;1.20;0.60;;;9.60;99.90;;;;;;5029852;28;20190;-68
2023/03/13 04:13:19;;;;;;;5.50;0.63;;;9.70;99.90;;;;;;5027643;28;20266;-68
2023/03/13 04:15:45;;;;;;;1.50;0.50;;;9.70;99.90;;;;;;5029529;28;21383;-68
2023/03/13 04:18:11;;;;;;;6.40;0.93;;;9.80;99.90;;;;;;5029731;28;20187;-68
2023/03/13 04:20:36;;;;;;;1.30;0.60;;;9.80;99.90;;;;;;5025316;28;20191;-68
2023/03/13 04:23:02;;;;;;;3.70;1.20;;;9.90;99.90;;;;;;5029158;28;20182;-68
2023/03/13 04:25:28;;;;;;;1.50;0.53;;;9.80;99.90;;;;;;5028349;28;20707;-68
2023/03/13 04:27:53;;;;;;;1.50;0.60;;;9.80;99.90;;;;;;5028444;28;20197;-68
2023/03/13 04:30:19;;;;;;;1.40;0.60;;;9.70;99.90;;;;;;5027404;28;20202;-69
2023/03/13 04:32:44;;;;;;;2.50;0.60;;;9.70;99.90;;;;;;5029811;28;20237;-68
2023/03/13 04:35:10;;;;;;;1.40;0.50;;;9.70;99.90;;;;;;5028306;28;20218;-68
2023/03/13 04:37:36;;;;;;;1.97;0.67;;;9.70;99.90;;;;;;5028306;28;20192;-66
2023/03/13 04:40:01;;;;;;;1.23;0.60;;;9.70;99.90;;;;;;5028425;28;20222;-66
2023/03/13 04:42:27;;;;;;;1.93;0.70;;;9.70;99.90;;;;;;5021121;28;20281;-66
2023/03/13 04:44:53;;;;;;;1.20;0.50;;;9.70;99.90;;;;;;5029148;28;20244;-66
2023/03/13 04:47:18;;;;;;;2.53;0.60;;;9.80;99.90;;;;;;5020913;28;20187;-67
2023/03/13 04:49:44;;;;;;;1.37;0.60;;;9.80;99.90;;;;;;5023713;28;20198;-68
2023/03/13 04:52:10;;;;;;;1.10;0.40;;;9.70;99.90;;;;;;5023576;28;20269;-68
2023/03/13 04:54:35;;;;;;;6.53;0.67;;;9.70;99.90;;;;;;5024913;28;20319;-68
2023/03/13 04:57:01;;;;;;;1.10;0.40;;;9.70;99.90;;;;;;5017100;28;20182;-68
2023/03/13 04:59:27;;;;;;;2.27;0.60;;;9.70;99.90;;;;;;5022939;28;20627;-68
2023/03/13 05:01:52;;;;;;;4.27;0.70;;;9.70;99.90;;;;;;5022663;28;20190;-68
2023/03/13 05:04:18;;;;;;;2.37;1.00;;;9.70;99.90;;;;;;5027159;28;20635;-68
2023/03/13 05:06:44;;;;;;;1.10;0.50;;;9.70;99.90;;;;;;5029674;28;20218;-68
2023/03/13 05:09:09;;;;;;;1.20;0.50;;;9.70;99.90;;;;;;5029835;28;20297;-67
2023/03/13 05:11:35;;;;;;;1.20;0.60;;;9.70;99.90;;;;;;5031008;28;20194;-68
2023/03/13 05:14:01;;;;;;;1.50;0.70;;;9.70;99.90;;;;;;5033033;28;20598;-68
2023/03/13 05:16:26;;;;;;;1.20;0.53;;;9.70;99.90;;;;;;5030397;28;20218;-68
2023/03/13 05:18:52;;;;;;;2.70;0.70;;;9.80;99.90;;;;;;5031768;28;20193;-68
2023/03/13 05:21:18;;;;;;;1.40;0.70;;;9.90;99.90;;;;;;5031248;28;20628;-68
2023/03/13 05:23:43;;;;;;;1.10;0.40;;;9.90;99.90;;;;;;5031982;28;20194;-68
2023/03/13 05:26:09;;;;;;;1.77;0.60;;;9.90;99.90;;;;;;5030127;28;20615;-67
2023/03/13 05:28:34;;;;;;;3.10;0.90;;;9.90;99.90;;;;;;5028063;28;20202;-68
2023/03/13 05:31:00;;;;;;;2.63;0.70;;;10.00;99.90;;;;;;5030841;28;20492;-68
2023/03/13 05:33:26;;;;;;;3.63;0.50;;;10.00;99.90;;;;;;5023185;28;20216;-68
2023/03/13 05:35:51;;;;;;;1.40;0.50;;;10.00;99.90;;;;;;5026897;28;20185;-67
2023/03/13 05:38:17;;;;;;;3.67;0.77;;;10.00;99.90;;;;;;5029046;28;20636;-68
2023/03/13 05:40:43;;;;;;;1.10;0.50;;;10.10;99.90;;;;;;5035854;28;20244;-68
2023/03/13 05:43:08;;;;;;;1.63;0.53;;;10.10;99.90;;;;;;5031168;28;20195;-67
2023/03/13 05:45:34;;;;;;;3.00;0.80;;;10.20;99.90;;;;;;5031053;28;20690;-68
2023/03/13 05:47:59;;;;;;;2.73;0.93;;;10.10;99.90;;;;;;5029536;28;20702;-68
2023/03/13 05:50:25;;;;;;;1.20;0.50;;;10.10;99.90;;;;;;5032333;28;20190;-68
2023/03/13 05:52:51;;;;;;;1.63;0.60;;;10.10;99.90;;;;;;5031022;28;20186;-68
2023/03/13 05:55:17;;;;;;;1.20;0.50;;;10.10;99.90;;;;;;5032453;28;20228;-67
2023/03/13 05:57:45;;;;;;;1.70;0.70;;;10.10;99.90;;;;;;5029789;28;20190;-68
2023/03/13 06:00:11;;;;;;;1.77;0.60;;;10.20;99.90;;;;;;5030743;28;20452;-68
2023/03/13 06:02:37;;;;;;;1.10;0.40;;;10.20;99.90;;;;;;5030222;28;20451;-68
2023/03/13 06:05:03;;;;;;;1.10;0.40;;;10.20;99.90;;;;;;5030333;28;20441;-67
2023/03/13 06:07:28;;;;;;;1.20;0.50;;;10.20;99.90;;;;;;5028947;28;20217;-67
2023/03/13 06:09:54;;;;;;;1.40;0.60;;;10.30;99.90;;;;;;5032825;28;20264;-67
2023/03/13 06:12:19;;;;;;;1.10;0.50;;;10.30;99.90;;;;;;5026522;28;20594;-68
2023/03/13 06:14:45;;;;;;;4.40;0.57;;;10.30;99.90;;;;;;5031691;28;20214;-68
2023/03/13 06:17:11;;;;;;;1.47;0.57;;;10.30;99.90;;;;;;5029566;28;20225;-67
2023/03/13 06:19:36;;;;;;;1.10;0.50;;;10.30;99.90;;;;;;5035034;28;20198;-67
2023/03/13 06:22:02;;;;;;;2.83;0.70;;;10.30;99.90;;;;;;5030421;28;20186;-67
2023/03/13 06:24:28;;;;;;;1.97;0.80;;;10.30;99.90;;;;;;5031659;28;20194;-67
2023/03/13 06:26:53;;;;;;;1.10;0.50;;;10.30;99.90;;;;;;5031305;28;20213;-67
2023/03/13 06:29:19;;;;;;;1.70;0.60;;;10.30;99.90;;;;;;5031255;28;20282;-67
2023/03/13 06:31:44;;;;;;;2.17;0.80;;;10.30;99.90;;;;;;5032958;28;20229;-67
2023/03/13 06:34:11;;;;;;;1.33;0.80;;;10.40;99.90;;;;;;5032108;28;20202;-67
2023/03/13 06:36:37;;;;;;;1.30;0.70;;;10.40;99.90;;;;;;5032503;28;20504;-68
2023/03/13 06:39:03;;;;;;;1.70;0.80;;;10.50;99.90;;;;;;5032873;28;20422;-67
2023/03/13 06:41:29;;;;;;;1.20;0.53;;;10.50;99.90;;;;;;5032734;28;20183;-67
2023/03/13 06:43:54;;;;;;;5.30;0.80;;;10.60;99.90;;;;;;5032362;28;20483;-68
2023/03/13 06:46:23;;;;;;;1.67;0.83;;;10.60;99.90;;;;;;5030109;28;20216;-68
2023/03/13 06:48:49;;;;;;;5.20;1.03;;;10.60;99.90;;;;;;5029495;28;20299;-69
2023/03/13 06:51:17;;;;;;;7.00;0.70;;;10.60;99.90;;;;;;5028427;28;20925;-68
2023/03/13 06:53:43;;;;;;;1.90;0.67;;;10.60;99.90;;;;;;5027856;28;21091;-68
2023/03/13 06:56:09;;;;;;;1.30;0.60;;;10.60;99.90;;;;;;5027015;28;20512;-67
2023/03/13 06:58:35;;;;;;;1.40;0.67;;;10.60;99.90;;;;;;5010233;28;20451;-67
2023/03/13 07:01:13;;;;;;;1.93;1.03;;;10.70;99.90;;;;;;5025152;28;20198;-68
2023/03/13 07:03:40;;;;;;;1.20;0.60;;;10.60;99.90;;;;;;5027163;28;20506;-68
2023/03/13 07:06:07;;;;;;;1.43;0.70;;;10.70;99.90;;;;;;5030055;28;20483;-67
2023/03/13 07:08:33;;;;;;;1.47;0.70;;;10.70;99.90;;;;;;5028748;28;20448;-67
2023/03/13 07:11:02;;;;;;;2.60;0.80;;;10.70;99.90;;;;;;5014279;28;20463;-67
2023/03/13 07:13:28;;;;;;;1.50;0.67;;;10.70;99.90;;;;;;5017410;28;20511;-68
2023/03/13 07:15:54;;;;;;;3.23;0.60;;;10.80;99.90;;;;;;5015687;28;20456;-68
2023/03/13 07:18:22;;;;;;;1.50;0.73;;;10.70;99.90;;;;;;5007783;28;20453;-67
2023/03/13 07:20:58;;;;;;;2.13;0.60;;;10.80;99.90;;;;;;4979585;28;20792;-67
2023/03/13 07:23:25;;;;;;;1.10;0.50;;;10.70;99.90;;;;;;4991347;28;20524;-67
2023/03/13 07:25:59;;;;;;;3.40;0.57;;;10.80;99.90;;;;;;4986326;28;20974;-67
2023/03/13 07:28:26;;;;;;;2.07;1.00;;;10.90;99.90;;;;;;4986481;28;20479;-68
2023/03/13 07:30:52;;;;;;;1.60;0.80;;;11.00;99.90;;;;;;4995079;28;20440;-67
2023/03/13 07:33:18;;;;;;;2.03;0.60;;;11.00;99.90;;;;;;4984966;28;20448;-68
2023/03/13 07:35:49;;;;;;;1.30;0.70;;;11.00;99.90;;;;;;5016014;28;20428;-66
2023/03/13 07:38:14;;;;;;;2.73;0.97;;;11.10;99.90;;;;;;5022994;28;20433;-66
2023/03/13 07:40:49;;;;;;;1.10;0.40;;;11.10;99.90;;;;;;5022837;28;20810;-66
2023/03/13 07:43:15;;;;;;;2.90;0.87;;;11.10;99.90;;;;;;5022790;28;20174;-66
2023/03/13 07:45:56;;;;;;;1.57;0.63;;;11.20;99.90;;;;;;5026483;28;20902;-66
2023/03/13 07:48:23;;;;;;;1.10;0.50;;;11.20;99.90;;;;;;5024469;28;20228;-66
2023/03/13 07:50:49;;;;;;;2.97;1.10;;;11.20;99.90;;;;;;5018742;28;20449;-66
2023/03/13 07:53:20;;;;;;;1.30;0.80;;;11.30;99.90;;;;;;5023397;28;20433;-67
2023/03/13 07:56:03;;;;;;;1.50;0.70;;;11.30;99.90;;;;;;5028464;28;20932;-66
2023/03/13 07:58:32;;;;;;;1.37;0.50;;;11.30;99.90;;;;;;5024049;28;20948;-67
2023/03/13 08:00:58;;;;;;;1.30;0.60;;;11.40;99.90;;;;;;5013910;28;20454;-66
2023/03/13 08:03:25;;;;;;;1.10;0.50;;;11.40;99.90;;;;;;4999956;28;20460;-66
2023/03/13 08:06:01;;;;;;;2.10;0.70;;;11.40;99.90;;;;;;5005127;28;20452;-66
2023/03/13 08:08:28;;;;;;;1.70;0.80;;;11.50;99.90;;;;;;5001512;28;21345;-66
2023/03/13 08:10:59;;;;;;;2.00;0.90;;;11.50;99.90;;;;;;5002564;28;20480;-66
2023/03/13 08:13:24;;;;;;;1.30;0.57;;;11.60;99.90;;;;;;5003340;28;20526;-66
2023/03/13 08:15:50;;;;;;;8.83;0.90;;;11.60;99.90;;;;;;5006972;28;20524;-66
2023/03/13 08:18:15;;;;;;;2.00;0.77;;;11.70;99.90;;;;;;5027174;28;20317;-66
2023/03/13 08:20:41;;;;;;;1.83;0.80;;;11.70;99.90;;;;;;5023761;28;20197;-66
2023/03/13 08:23:07;;;;;;;1.90;0.90;;;11.80;99.90;;;;;;5027864;28;20535;-66
2023/03/13 08:25:32;;;;;;;1.83;0.80;;;11.90;99.90;;;;;;5024184;28;20779;-66
2023/03/13 08:27:58;;;;;;;1.30;0.50;;;11.90;99.90;;;;;;5027122;28;20179;-69
2023/03/13 08:30:23;;;;;;;1.20;0.50;;;11.90;99.90;;;;;;5027804;28;20208;-65
2023/03/13 08:32:49;;;;;;;1.93;0.60;;;11.90;99.90;;;;;;5026902;28;20661;-64
2023/03/13 08:35:15;;;;;;;1.40;0.63;;;12.00;99.90;;;;;;5023646;28;20222;-65
2023/03/13 08:37:40;;;;;;;1.40;0.70;;;12.00;99.90;;;;;;5022615;28;20190;-65
2023/03/13 08:40:10;;;;;;;1.20;0.53;;;12.00;99.90;;;;;;5029645;28;20194;-65
2023/03/13 08:42:36;;;;;;;1.20;0.50;;;11.90;99.90;;;;;;5030446;28;20191;-65
2023/03/13 08:45:03;;;;;;;1.40;0.70;;;11.90;99.90;;;;;;5030721;28;20909;-65
2023/03/13 08:47:29;;;;;;;2.03;0.70;;;11.90;99.90;;;;;;5023955;28;20445;-64
2023/03/13 08:49:55;;;;;;;1.43;0.77;;;12.00;99.90;;;;;;5026801;28;20460;-65
2023/03/13 08:52:20;;;;;;;1.50;0.80;;;12.00;99.90;;;;;;5023753;28;20213;-65
2023/03/13 08:54:47;;;;;;;2.23;0.90;;;12.00;99.90;;;;;;5025047;28;20246;-65
2023/03/13 08:57:14;;;;;;;1.87;0.73;;;12.00;99.90;;;;;;5028375;28;20190;-65
2023/03/13 08:59:39;;;;;;;1.20;0.60;;;12.10;99.90;;;;;;5031152;28;20420;-65
2023/03/13 09:02:05;;;;;;;1.60;0.70;;;12.20;99.90;;;;;;5030538;28;20498;-65
2023/03/13 09:04:31;;;;;;;1.20;0.60;;;12.20;99.90;;;;;;5028859;28;20225;-65
2023/03/13 09:06:56;;;;;;;1.40;0.67;;;12.30;99.90;;;;;;5028576;28;20637;-65
2023/03/13 09:09:22;;;;;;;1.30;0.60;;;12.30;99.90;;;;;;5029713;28;20201;-65
2023/03/13 09:11:47;;;;;;;1.33;0.60;;;12.30;99.90;;;;;;5029163;28;20225;-64
2023/03/13 09:14:13;;;;;;;1.57;0.60;;;12.30;99.90;;;;;;5029372;28;20249;-65
2023/03/13 09:16:39;;;;;;;1.50;0.63;;;12.40;99.90;;;;;;5026044;28;20189;-65
2023/03/13 09:19:04;;;;;;;2.03;0.63;;;12.40;99.90;;;;;;5027252;28;20186;-65
2023/03/13 09:21:34;;;;;;;1.60;0.53;;;12.40;99.90;;;;;;5028307;28;20193;-65
2023/03/13 09:24:01;;;;;;;1.30;0.50;;;12.50;99.90;;;;;;5026980;28;20183;-65
2023/03/13 09:26:27;;;;;;;1.97;0.90;;;12.60;99.90;;;;;;5024469;28;20448;-64
2023/03/13 09:28:54;;;;;;;6.33;0.80;;;12.60;99.90;;;;;;5028943;28;20454;-64
2023/03/13 09:31:23;;;;;;;2.37;0.93;;;12.80;99.90;;;;;;5025983;28;20503;-64
2023/03/13 09:33:49;;;;;;;1.70;0.70;;;12.90;99.90;;;;;;5027361;28;20476;-64
2023/03/13 09:36:16;;;;;;;1.53;0.70;;;13.00;99.90;;;;;;5019458;28;20575;-65
2023/03/13 09:38:41;;;;;;;1.30;0.50;;;13.10;99.90;;;;;;5024201;28;20495;-64
2023/03/13 09:41:16;;;;;;;1.67;0.73;;;13.40;99.90;;;;;;5024926;28;20452;-65
2023/03/13 09:43:58;;;;;;;1.57;0.80;;;13.70;99.90;;;;;;5021852;28;20205;-64
2023/03/13 09:46:48;;;;;;;2.97;0.77;;;14.00;99.90;;;;;;5026233;28;20457;-65
2023/03/13 09:49:32;;;;;;;3.93;0.50;;;14.20;99.90;;;;;;5023395;28;20445;-65
2023/03/13 09:52:20;;;;;;;1.50;0.77;;;14.40;99.90;;;;;;5020603;28;20448;-65
2023/03/13 09:54:48;;;;;;;1.30;0.60;;;14.40;99.90;;;;;;5027650;28;20901;-65
2023/03/13 09:57:27;;;;;;;1.50;0.60;;;14.40;99.90;;;;;;5022146;28;20455;-65
2023/03/13 09:59:59;;;;;;;1.40;0.70;;;14.50;99.90;;;;;;5025980;28;20457;-65
2023/03/13 10:02:30;;;;;;;1.60;0.93;;;14.50;99.90;;;;;;5022629;28;20894;-64
2023/03/13 10:05:19;;;;;;;1.33;0.60;;;14.60;99.90;;;;;;5018813;28;20888;-65
2023/03/13 10:07:44;;;;;;;1.50;0.80;;;14.70;99.90;;;;;;5018109;28;20447;-65
2023/03/13 10:10:24;;;;;;;3.67;1.70;;;14.90;99.90;;;;;;5018552;28;20828;-65
2023/03/13 10:12:59;;;;;;;1.97;0.70;;;14.90;99.90;;;;;;5019138;28;20259;-64
2023/03/13 10:15:52;;;;;;;1.43;0.60;;;14.90;99.90;;;;;;5023268;28;20516;-65
2023/03/13 10:18:22;;;;;;;6.93;1.03;;;15.00;99.90;;;;;;5024750;28;20449;-65
2023/03/13 10:20:50;;;;;;;1.80;1.00;;;15.20;99.90;;;;;;5023963;28;20444;-64
2023/03/13 10:23:16;;;;;;;2.63;1.23;;;15.40;99.90;;;;;;5022913;28;20421;-64
2023/03/13 10:25:41;;;;;;;13.10;0.97;;;15.50;99.90;;;;;;5020517;28;20504;-64
2023/03/13 10:28:13;;;;;;;1.77;0.80;;;15.60;99.90;;;;;;5023162;28;20191;-65
2023/03/13 10:30:53;;;;;;;1.37;0.63;;;15.70;99.90;;;;;;5026202;28;20249;-65
2023/03/13 10:33:18;;;;;;;1.33;0.70;;;15.70;99.90;;;;;;5022083;28;21405;-65
2023/03/13 10:35:44;;;;;;;1.50;0.90;;;15.80;99.90;;;;;;5026731;28;20448;-65
2023/03/13 10:38:18;;;;;;;2.00;0.80;;;15.90;99.90;;;;;;5027255;28;20673;-65
2023/03/13 10:40:59;;;;;;;4.60;1.03;;;16.00;99.90;;;;;;5027278;28;20218;-64
2023/03/13 10:43:26;;;;;;;1.80;0.80;;;16.10;99.90;;;;;;5027567;28;20432;-65
2023/03/13 10:45:52;;;;;;;1.40;0.60;;;16.30;99.90;;;;;;5028333;28;20425;-65
2023/03/13 10:48:29;;;;;;;14.03;1.60;;;16.40;99.90;;;;;;5027721;28;20413;-65
2023/03/13 10:50:58;;;;;;;3.00;1.10;;;16.60;99.50;;;;;;5028324;28;20433;-65
2023/03/13 10:53:31;;;;;;;4.30;0.80;;;16.80;99.30;;;;;;5028381;28;20429;-65
2023/03/13 10:56:09;;;;;;;2.33;1.00;;;16.90;99.50;;;;;;5026804;28;20460;-65
2023/03/13 10:58:43;;;;;;;1.73;0.73;;;17.10;99.50;;;;;;5025173;28;20466;-65
2023/03/13 11:01:18;;;;;;;1.63;0.90;;;17.40;98.70;;;;;;5023730;28;20458;-65
2023/03/13 11:03:45;;;;;;;2.67;1.00;;;17.60;98.00;;;;;;5019905;28;20448;-65
2023/03/13 11:06:31;;;;;;;5.47;1.27;;;17.70;98.00;;;;;;5023703;28;20605;-65
2023/03/13 11:09:18;;;;;;;2.27;0.90;;;17.70;97.20;;;;;;5019440;28;20456;-65
2023/03/13 11:11:59;;;;;;;1.87;0.73;;;17.60;97.80;;;;;;5025170;28;20881;-65
2023/03/13 11:14:25;;;;;;;1.30;0.70;;;17.60;97.60;;;;;;5024792;28;21639;-65
2023/03/13 11:17:18;;;;;;;3.63;0.60;;;17.70;98.10;;;;;;5024810;28;20440;-65
2023/03/13 11:20:22;;;;;;;1.97;0.90;;;17.70;97.10;;;;;;5022478;28;20265;-65
2023/03/13 11:23:08;;;;;;;1.30;0.60;;;17.80;97.50;;;;;;4928454;29;20962;-65
2023/03/13 11:25:57;;;;;;;5.10;0.60;;;17.90;97.80;;;;;;4926816;29;20535;-65
2023/03/13 11:28:28;;;;;;;1.70;0.60;;;18.10;97.20;;;;;;5002561;28;20543;-65
2023/03/13 11:31:14;;;;;;;1.77;0.80;;;18.30;97.00;;;;;;5019407;28;20435;-65
2023/03/13 11:33:52;;;;;;;1.50;0.63;;;18.30;97.00;;;;;;5026853;28;20480;-65
2023/03/13 11:36:35;;;;;;;2.80;0.90;;;18.00;96.10;;;;;;5028215;28;20464;-65
2023/03/13 11:39:29;;;;;;;1.60;0.60;;;17.50;96.20;;;;;;5026613;28;20941;-65
2023/03/13 11:42:00;;;;;;;6.93;1.30;;;17.20;96.90;;;;;;5027097;28;20920;-61
2023/03/13 11:44:39;;;;;;;2.00;0.80;;;16.80;97.00;;;;;;5028871;28;20457;-61
2023/03/13 11:47:32;;;;;;;1.30;0.60;;;16.70;97.00;;;;;;5029233;28;20429;-61
2023/03/13 11:50:25;;;;;;;1.40;0.60;;;16.90;97.30;;;;;;5027624;28;20429;-61
2023/03/13 11:53:12;;;;;;;1.57;0.73;;;17.20;96.70;;;;;;5026618;28;20941;-61
2023/03/13 11:55:51;;;;;;;3.13;1.00;;;17.50;96.70;;;;;;5028836;28;20514;-61
2023/03/13 11:58:37;;;;;;;2.13;0.90;;;17.70;96.00;;;;;;5026708;28;20440;-61
2023/03/13 12:01:20;;;;;;;1.70;0.93;;;17.80;96.10;;;;;;5027471;28;20440;-61
2023/03/13 12:03:55;;;;;;;1.80;0.70;;;18.00;95.50;;;;;;5025182;28;20444;-61
2023/03/13 12:06:31;;;;;;;2.43;0.90;;;18.20;95.50;;;;;;5028261;28;20512;-61
2023/03/13 12:09:13;;;;;;;1.50;0.80;;;18.00;95.10;;;;;;5025927;28;20911;-61
2023/03/13 12:11:48;;;;;;;1.20;0.50;;;18.00;95.70;;;;;;5026522;28;20440;-61
2023/03/13 12:14:30;;;;;;;1.60;0.77;;;18.00;95.40;;;;;;5036175;28;20525;-61
2023/03/13 12:17:03;;;;;;;2.00;0.90;;;18.30;95.50;;;;;;5035197;28;20508;-61
2023/03/13 12:19:40;;;;;;;4.40;1.20;;;18.30;95.40;;;;;;5036052;28;20439;-61
2023/03/13 12:22:16;;;;;;;2.27;0.73;;;18.40;94.30;;;;;;5031813;28;20456;-61
2023/03/13 12:24:59;;;;;;;2.00;1.00;;;18.50;94.70;;;;;;5024060;28;20440;-61
2023/03/13 12:27:47;;;;;;;1.33;0.60;;;18.70;94.80;;;;;;5025307;28;20514;-61
2023/03/13 12:30:38;;;;;;;1.60;0.83;;;19.00;93.90;;;;;;5029478;28;20464;-62
2023/03/13 12:33:39;;;;;;;2.13;0.60;;;19.00;92.30;;;;;;5030430;28;20439;-62
2023/03/13 12:36:28;;;;;;;3.10;1.13;;;18.90;92.70;;;;;;5032796;28;20444;-62
2023/03/13 12:39:38;;;;;;;2.13;0.70;;;18.90;92.60;;;;;;5008680;28;20548;-62
2023/03/13 12:42:18;;;;;;;6.30;0.90;;;19.00;92.40;;;;;;5032183;28;20433;-62
2023/03/13 12:44:44;;;;;;;1.70;0.70;;;18.90;91.80;;;;;;5029849;28;20472;-61
2023/03/13 12:47:34;;;;;;;1.30;0.50;;;19.10;92.10;;;;;;5031174;28;20443;-61
2023/03/13 12:50:18;;;;;;;1.77;0.87;;;19.10;91.40;;;;;;5031948;28;20799;-62
2023/03/13 12:53:00;;;;;;;2.47;1.13;;;19.20;92.70;;;;;;5025774;28;21003;-61
2023/03/13 12:55:55;;;;;;;1.30;0.50;;;19.20;91.20;;;;;;5030231;28;20800;-61
2023/03/13 12:58:43;;;;;;;1.30;0.60;;;19.10;91.40;;;;;;5032122;28;20447;-61
2023/03/13 13:01:16;;;;;;;8.20;0.70;;;19.00;91.80;;;;;;5028543;28;20448;-61
2023/03/13 13:03:58;;;;;;;3.20;0.80;;;19.00;91.50;;;;;;5030151;28;20579;-61
2023/03/13 13:06:24;;;;;;;1.90;0.80;;;19.30;92.10;;;;;;5035740;28;20437;-61